sensor_id;sensor_type;location;lat;lon;timestamp;pressure;altitude;pressure_sealevel;temperature;humidity
24620;BME280;12763;55.802;37.404;2023-05-16T00:00:53;100110.69;;;15.50;70.37
24620;BME280;12763;55.802;37.404;2023-05-16T00:03:19;100104.56;;;15.60;68.74
24620;BME280;12763;55.802;37.404;2023-05-16T00:05:45;100101.19;;;15.69;68.07
24620;BME280;12763;55.802;37.404;2023-05-16T00:08:11;100101.56;;;15.73;68.61
24620;BME280;12763;55.802;37.404;2023-05-16T00:10:37;100103.38;;;15.67;69.72
24620;BME280;12763;55.802;37.404;2023-05-16T00:13:03;100106.72;;;15.58;70.75
24620;BME280;12763;55.802;37.404;2023-05-16T00:15:29;100109.25;;;15.48;72.01
24620;BME280;12763;55.802;37.404;2023-05-16T00:17:55;100123.78;;;15.32;74.17
24620;BME280;12763;55.802;37.404;2023-05-16T00:20:25;100123.81;;;15.13;75.79
24620;BME280;12763;55.802;37.404;2023-05-16T00:22:53;100110.41;;;14.92;78.22
24620;BME280;12763;55.802;37.404;2023-05-16T00:25:19;100103.47;;;14.83;79.44
24620;BME280;12763;55.802;37.404;2023-05-16T00:27:45;100119.75;;;14.80;80.51
24620;BME280;12763;55.802;37.404;2023-05-16T00:30:11;100117.19;;;14.78;81.79
24620;BME280;12763;55.802;37.404;2023-05-16T00:32:37;100103.94;;;14.80;81.72
24620;BME280;12763;55.802;37.404;2023-05-16T00:35:04;100106.47;;;14.82;82.16
24620;BME280;12763;55.802;37.404;2023-05-16T00:37:31;100116.75;;;14.81;81.82
24620;BME280;12763;55.802;37.404;2023-05-16T00:39:57;100108.41;;;14.81;81.84
24620;BME280;12763;55.802;37.404;2023-05-16T00:42:23;100109.41;;;14.87;81.47
24620;BME280;12763;55.802;37.404;2023-05-16T00:44:49;100109.19;;;14.88;81.32
24620;BME280;12763;55.802;37.404;2023-05-16T00:47:15;100096.75;;;14.91;80.85
24620;BME280;12763;55.802;37.404;2023-05-16T00:49:41;100100.75;;;14.95;80.44
24620;BME280;12763;55.802;37.404;2023-05-16T00:52:08;100099.44;;;14.97;80.27
24620;BME280;12763;55.802;37.404;2023-05-16T00:54:34;100091.72;;;14.99;79.50
24620;BME280;12763;55.802;37.404;2023-05-16T00:57:00;100095.50;;;15.05;78.96
24620;BME280;12763;55.802;37.404;2023-05-16T00:59:26;100096.78;;;15.02;78.99
24620;BME280;12763;55.802;37.404;2023-05-16T01:01:52;100100.44;;;15.03;78.54
24620;BME280;12763;55.802;37.404;2023-05-16T01:04:19;100101.28;;;15.03;77.78
24620;BME280;12763;55.802;37.404;2023-05-16T01:06:45;100089.56;;;15.01;77.20
24620;BME280;12763;55.802;37.404;2023-05-16T01:09:12;100091.03;;;15.04;76.97
24620;BME280;12763;55.802;37.404;2023-05-16T01:12:14;100088.16;;;14.92;79.22
24620;BME280;12763;55.802;37.404;2023-05-16T01:14:55;100081.63;;;14.87;78.56
24620;BME280;12763;55.802;37.404;2023-05-16T01:22:45;100078.91;;;14.98;80.69
24620;BME280;12763;55.802;37.404;2023-05-16T01:25:31;100086.72;;;14.90;79.05
24620;BME280;12763;55.802;37.404;2023-05-16T01:28:01;100079.41;;;14.77;78.41
24620;BME280;12763;55.802;37.404;2023-05-16T01:30:34;100081.94;;;14.79;78.76
24620;BME280;12763;55.802;37.404;2023-05-16T01:33:01;100082.66;;;14.74;78.58
24620;BME280;12763;55.802;37.404;2023-05-16T01:35:27;100073.16;;;14.82;78.70
24620;BME280;12763;55.802;37.404;2023-05-16T01:40:57;100081.22;;;14.83;81.28
24620;BME280;12763;55.802;37.404;2023-05-16T01:43:33;100083.13;;;14.71;82.16
24620;BME280;12763;55.802;37.404;2023-05-16T01:46:10;100082.19;;;14.59;82.98
24620;BME280;12763;55.802;37.404;2023-05-16T01:49:00;100097.53;;;14.43;87.12
24620;BME280;12763;55.802;37.404;2023-05-16T01:51:31;100086.19;;;14.20;87.52
24620;BME280;12763;55.802;37.404;2023-05-16T01:54:05;100089.22;;;14.19;89.10
24620;BME280;12763;55.802;37.404;2023-05-16T01:56:36;100094.31;;;14.22;88.79
24620;BME280;12763;55.802;37.404;2023-05-16T01:59:03;100089.22;;;14.19;88.45
24620;BME280;12763;55.802;37.404;2023-05-16T02:01:31;100083.28;;;14.15;88.57
24620;BME280;12763;55.802;37.404;2023-05-16T02:03:57;100090.44;;;14.23;87.95
24620;BME280;12763;55.802;37.404;2023-05-16T02:06:23;100096.38;;;14.33;87.34
24620;BME280;12763;55.802;37.404;2023-05-16T02:08:50;100098.84;;;14.41;86.91
24620;BME280;12763;55.802;37.404;2023-05-16T02:11:17;100100.06;;;14.45;86.17
24620;BME280;12763;55.802;37.404;2023-05-16T02:13:44;100093.00;;;14.49;85.25
24620;BME280;12763;55.802;37.404;2023-05-16T02:16:10;100102.06;;;14.56;84.77
24620;BME280;12763;55.802;37.404;2023-05-16T02:18:37;100099.00;;;14.64;83.50
24620;BME280;12763;55.802;37.404;2023-05-16T02:21:04;100100.84;;;14.70;82.12
24620;BME280;12763;55.802;37.404;2023-05-16T02:23:30;100103.56;;;14.77;81.09
24620;BME280;12763;55.802;37.404;2023-05-16T02:25:56;100103.47;;;14.83;80.06
24620;BME280;12763;55.802;37.404;2023-05-16T02:28:22;100103.78;;;14.93;78.85
24620;BME280;12763;55.802;37.404;2023-05-16T02:30:58;100101.88;;;15.05;78.11
24620;BME280;12763;55.802;37.404;2023-05-16T02:33:25;100103.50;;;15.13;76.79
24620;BME280;12763;55.802;37.404;2023-05-16T02:35:52;100100.75;;;15.24;75.56
24620;BME280;12763;55.802;37.404;2023-05-16T02:38:18;100104.31;;;15.32;74.11
24620;BME280;12763;55.802;37.404;2023-05-16T02:40:46;100102.66;;;15.42;72.67
24620;BME280;12763;55.802;37.404;2023-05-16T02:43:12;100110.69;;;15.50;71.84
24620;BME280;12763;55.802;37.404;2023-05-16T02:45:38;100108.19;;;15.60;70.86
24620;BME280;12763;55.802;37.404;2023-05-16T02:48:04;100112.56;;;15.68;70.45
24620;BME280;12763;55.802;37.404;2023-05-16T02:50:30;100110.00;;;15.66;69.94
24620;BME280;12763;55.802;37.404;2023-05-16T02:52:56;100104.69;;;15.65;69.98
24620;BME280;12763;55.802;37.404;2023-05-16T02:55:25;100106.63;;;15.64;70.04
24620;BME280;12763;55.802;37.404;2023-05-16T02:57:51;100106.63;;;15.64;70.08
24620;BME280;12763;55.802;37.404;2023-05-16T03:00:17;100107.00;;;15.68;69.64
24620;BME280;12763;55.802;37.404;2023-05-16T03:02:44;100104.56;;;15.71;69.63
24620;BME280;12763;55.802;37.404;2023-05-16T03:05:10;100100.13;;;15.70;69.13
24620;BME280;12763;55.802;37.404;2023-05-16T03:07:37;100104.00;;;15.81;68.92
24620;BME280;12763;55.802;37.404;2023-05-16T03:10:05;100092.63;;;15.82;68.69
24620;BME280;12763;55.802;37.404;2023-05-16T03:12:31;100099.31;;;15.93;68.06
24620;BME280;12763;55.802;37.404;2023-05-16T03:14:57;100096.19;;;16.01;67.41
24620;BME280;12763;55.802;37.404;2023-05-16T03:17:23;100110.59;;;16.10;67.19
24620;BME280;12763;55.802;37.404;2023-05-16T03:19:50;100103.69;;;16.12;67.21
24620;BME280;12763;55.802;37.404;2023-05-16T03:22:16;100115.06;;;16.22;66.66
24620;BME280;12763;55.802;37.404;2023-05-16T03:24:42;100113.25;;;16.28;66.11
24620;BME280;12763;55.802;37.404;2023-05-16T03:27:11;100107.09;;;16.37;65.79
24620;BME280;12763;55.802;37.404;2023-05-16T03:29:37;100108.91;;;16.55;64.77
24620;BME280;12763;55.802;37.404;2023-05-16T03:32:03;100108.50;;;16.52;64.91
24620;BME280;12763;55.802;37.404;2023-05-16T03:34:29;100104.63;;;16.53;64.88
24620;BME280;12763;55.802;37.404;2023-05-16T03:36:56;100108.91;;;16.67;64.22
24620;BME280;12763;55.802;37.404;2023-05-16T03:39:22;100105.25;;;16.66;63.44
24620;BME280;12763;55.802;37.404;2023-05-16T03:41:48;100108.03;;;16.78;62.57
24620;BME280;12763;55.802;37.404;2023-05-16T03:44:14;100115.41;;;16.84;61.86
24620;BME280;12763;55.802;37.404;2023-05-16T03:46:40;100112.34;;;16.97;61.09
24620;BME280;12763;55.802;37.404;2023-05-16T03:49:06;100114.34;;;17.13;60.68
24620;BME280;12763;55.802;37.404;2023-05-16T03:51:32;100113.75;;;17.23;60.11
24620;BME280;12763;55.802;37.404;2023-05-16T03:53:57;100111.63;;;17.30;59.97
24620;BME280;12763;55.802;37.404;2023-05-16T03:56:23;100118.41;;;17.34;59.30
24620;BME280;12763;55.802;37.404;2023-05-16T03:58:50;100122.69;;;17.25;59.33
24620;BME280;12763;55.802;37.404;2023-05-16T04:01:16;100126.97;;;17.44;58.79
24620;BME280;12763;55.802;37.404;2023-05-16T04:03:42;100121.00;;;17.52;58.63
24620;BME280;12763;55.802;37.404;2023-05-16T04:06:07;100117.84;;;17.60;58.18
24620;BME280;12763;55.802;37.404;2023-05-16T04:08:33;100116.16;;;17.59;58.25
24620;BME280;12763;55.802;37.404;2023-05-16T04:10:59;100117.84;;;17.77;57.92
24620;BME280;12763;55.802;37.404;2023-05-16T04:13:25;100120.16;;;17.80;57.48
24620;BME280;12763;55.802;37.404;2023-05-16T04:15:51;100122.94;;;17.80;57.40
24620;BME280;12763;55.802;37.404;2023-05-16T04:18:17;100120.66;;;17.77;57.43
24620;BME280;12763;55.802;37.404;2023-05-16T04:20:47;100122.47;;;17.99;56.73
24620;BME280;12763;55.802;37.404;2023-05-16T04:23:12;100123.47;;;18.10;55.90
24620;BME280;12763;55.802;37.404;2023-05-16T04:25:38;100129.34;;;18.25;55.20
24620;BME280;12763;55.802;37.404;2023-05-16T04:28:04;100128.91;;;18.33;54.84
24620;BME280;12763;55.802;37.404;2023-05-16T04:30:30;100123.47;;;18.43;54.95
24620;BME280;12763;55.802;37.404;2023-05-16T04:32:56;100133.28;;;18.46;54.68
24620;BME280;12763;55.802;37.404;2023-05-16T04:35:26;100130.75;;;18.61;53.99
24620;BME280;12763;55.802;37.404;2023-05-16T04:37:53;100135.28;;;18.67;53.78
24620;BME280;12763;55.802;37.404;2023-05-16T04:40:19;100133.31;;;18.84;53.71
24620;BME280;12763;55.802;37.404;2023-05-16T04:42:45;100127.78;;;18.89;53.54
24620;BME280;12763;55.802;37.404;2023-05-16T04:45:12;100135.41;;;18.94;53.18
24620;BME280;12763;55.802;37.404;2023-05-16T04:47:39;100133.84;;;19.03;53.04
24620;BME280;12763;55.802;37.404;2023-05-16T04:50:06;100131.38;;;19.06;52.64
24620;BME280;12763;55.802;37.404;2023-05-16T04:52:34;100141.47;;;19.07;52.63
24620;BME280;12763;55.802;37.404;2023-05-16T04:55:00;100139.72;;;19.01;52.56
24620;BME280;12763;55.802;37.404;2023-05-16T04:57:26;100147.25;;;19.22;52.07
24620;BME280;12763;55.802;37.404;2023-05-16T04:59:52;100145.31;;;19.23;51.70
24620;BME280;12763;55.802;37.404;2023-05-16T05:02:18;100142.50;;;19.23;51.62
24620;BME280;12763;55.802;37.404;2023-05-16T05:04:44;100147.34;;;19.27;50.32
24620;BME280;12763;55.802;37.404;2023-05-16T05:07:10;100153.91;;;19.16;48.98
24620;BME280;12763;55.802;37.404;2023-05-16T05:09:36;100151.94;;;19.17;48.11
24620;BME280;12763;55.802;37.404;2023-05-16T05:12:02;100152.78;;;19.17;47.16
24620;BME280;12763;55.802;37.404;2023-05-16T05:14:28;100152.44;;;19.14;45.95
24620;BME280;12763;55.802;37.404;2023-05-16T05:16:54;100148.56;;;19.15;45.40
24620;BME280;12763;55.802;37.404;2023-05-16T05:19:20;100151.03;;;19.33;44.72
24620;BME280;12763;55.802;37.404;2023-05-16T05:21:46;100156.59;;;19.50;44.33
24620;BME280;12763;55.802;37.404;2023-05-16T05:24:11;100151.44;;;19.63;44.05
24620;BME280;12763;55.802;37.404;2023-05-16T05:26:37;100156.03;;;19.53;43.74
24620;BME280;12763;55.802;37.404;2023-05-16T05:29:04;100159.03;;;19.68;43.63
24620;BME280;12763;55.802;37.404;2023-05-16T05:31:29;100163.41;;;19.37;42.50
24620;BME280;12763;55.802;37.404;2023-05-16T05:33:58;100161.56;;;19.26;41.78
24620;BME280;12763;55.802;37.404;2023-05-16T05:36:24;100170.00;;;19.48;42.03
24620;BME280;12763;55.802;37.404;2023-05-16T05:38:50;100173.09;;;19.73;41.57
24620;BME280;12763;55.802;37.404;2023-05-16T05:41:15;100167.84;;;19.81;41.21
24620;BME280;12763;55.802;37.404;2023-05-16T05:43:41;100170.25;;;19.46;41.41
24620;BME280;12763;55.802;37.404;2023-05-16T05:46:07;100176.22;;;19.76;41.13
24620;BME280;12763;55.802;37.404;2023-05-16T05:48:33;100172.66;;;19.86;41.13
24620;BME280;12763;55.802;37.404;2023-05-16T05:50:59;100174.69;;;19.90;40.78
24620;BME280;12763;55.802;37.404;2023-05-16T05:53:25;100175.44;;;20.08;40.54
24620;BME280;12763;55.802;37.404;2023-05-16T05:55:51;100176.78;;;20.32;40.11
24620;BME280;12763;55.802;37.404;2023-05-16T05:58:17;100172.75;;;20.23;40.64
24620;BME280;12763;55.802;37.404;2023-05-16T06:00:43;100171.91;;;20.49;40.39
24620;BME280;12763;55.802;37.404;2023-05-16T06:03:09;100177.19;;;20.45;40.72
24620;BME280;12763;55.802;37.404;2023-05-16T06:05:35;100175.16;;;20.41;40.25
24620;BME280;12763;55.802;37.404;2023-05-16T06:08:01;100174.84;;;20.32;40.47
24620;BME280;12763;55.802;37.404;2023-05-16T06:10:27;100176.03;;;20.41;40.08
24620;BME280;12763;55.802;37.404;2023-05-16T06:12:53;100183.00;;;20.39;40.10
24620;BME280;12763;55.802;37.404;2023-05-16T06:15:19;100189.31;;;20.56;39.79
24620;BME280;12763;55.802;37.404;2023-05-16T06:17:44;100190.09;;;20.20;39.78
24620;BME280;12763;55.802;37.404;2023-05-16T06:20:10;100186.06;;;20.11;40.12
24620;BME280;12763;55.802;37.404;2023-05-16T06:22:36;100190.00;;;20.10;39.44
24620;BME280;12763;55.802;37.404;2023-05-16T06:25:02;100189.00;;;20.21;39.05
24620;BME280;12763;55.802;37.404;2023-05-16T06:27:32;100188.72;;;20.49;38.87
24620;BME280;12763;55.802;37.404;2023-05-16T06:29:58;100188.16;;;20.52;38.89
24620;BME280;12763;55.802;37.404;2023-05-16T06:32:23;100184.63;;;20.67;38.89
24620;BME280;12763;55.802;37.404;2023-05-16T06:34:49;100183.41;;;20.52;38.95
24620;BME280;12763;55.802;37.404;2023-05-16T06:37:15;100181.31;;;20.75;38.49
24620;BME280;12763;55.802;37.404;2023-05-16T06:39:41;100179.94;;;20.77;38.38
24620;BME280;12763;55.802;37.404;2023-05-16T06:42:07;100177.56;;;20.59;38.54
24620;BME280;12763;55.802;37.404;2023-05-16T06:44:36;100175.00;;;20.94;38.24
24620;BME280;12763;55.802;37.404;2023-05-16T06:47:02;100173.09;;;21.05;37.95
24620;BME280;12763;55.802;37.404;2023-05-16T06:49:27;100168.47;;;21.21;37.74
24620;BME280;12763;55.802;37.404;2023-05-16T06:51:53;100169.09;;;21.38;37.73
24620;BME280;12763;55.802;37.404;2023-05-16T06:54:19;100173.25;;;21.25;37.88
24620;BME280;12763;55.802;37.404;2023-05-16T06:56:45;100175.31;;;21.45;37.78
24620;BME280;12763;55.802;37.404;2023-05-16T06:59:11;100178.66;;;21.42;37.77
24620;BME280;12763;55.802;37.404;2023-05-16T07:01:37;100173.66;;;21.54;37.64
24620;BME280;12763;55.802;37.404;2023-05-16T07:04:02;100176.19;;;21.60;37.49
24620;BME280;12763;55.802;37.404;2023-05-16T07:06:28;100174.63;;;21.18;37.24
24620;BME280;12763;55.802;37.404;2023-05-16T07:08:54;100179.50;;;21.37;36.94
24620;BME280;12763;55.802;37.404;2023-05-16T07:11:20;100175.31;;;21.45;36.76
24620;BME280;12763;55.802;37.404;2023-05-16T07:13:46;100177.78;;;21.36;36.76
24620;BME280;12763;55.802;37.404;2023-05-16T07:16:12;100183.94;;;21.28;36.88
24620;BME280;12763;55.802;37.404;2023-05-16T07:18:38;100173.91;;;21.47;36.68
24620;BME280;12763;55.802;37.404;2023-05-16T07:21:04;100173.34;;;21.45;36.29
24620;BME280;12763;55.802;37.404;2023-05-16T07:23:30;100182.97;;;21.07;36.36
24620;BME280;12763;55.802;37.404;2023-05-16T07:25:57;100178.47;;;21.06;36.12
24620;BME280;12763;55.802;37.404;2023-05-16T07:28:23;100181.47;;;21.42;35.71
24620;BME280;12763;55.802;37.404;2023-05-16T07:30:48;100175.06;;;21.56;35.55
24620;BME280;12763;55.802;37.404;2023-05-16T07:33:14;100175.00;;;21.41;35.07
24620;BME280;12763;55.802;37.404;2023-05-16T07:35:40;100167.78;;;21.60;34.46
24620;BME280;12763;55.802;37.404;2023-05-16T07:38:07;100167.97;;;21.34;34.63
24620;BME280;12763;55.802;37.404;2023-05-16T07:40:33;100173.66;;;21.54;34.76
24620;BME280;12763;55.802;37.404;2023-05-16T07:42:59;100167.41;;;21.37;34.71
24620;BME280;12763;55.802;37.404;2023-05-16T07:45:25;100173.63;;;21.49;34.37
24620;BME280;12763;55.802;37.404;2023-05-16T07:47:51;100167.41;;;21.37;34.49
24620;BME280;12763;55.802;37.404;2023-05-16T07:50:17;100168.09;;;21.69;34.38
24620;BME280;12763;55.802;37.404;2023-05-16T07:52:43;100169.16;;;21.58;34.58
24620;BME280;12763;55.802;37.404;2023-05-16T07:55:09;100169.09;;;21.38;34.14
24620;BME280;12763;55.802;37.404;2023-05-16T07:57:35;100174.66;;;21.23;34.06
24620;BME280;12763;55.802;37.404;2023-05-16T08:00:01;100176.22;;;21.65;34.13
24620;BME280;12763;55.802;37.404;2023-05-16T08:02:38;100176.28;;;21.86;34.02
24620;BME280;12763;55.802;37.404;2023-05-16T08:05:05;100169.91;;;22.26;33.55
24620;BME280;12763;55.802;37.404;2023-05-16T08:07:31;100159.78;;;22.14;33.29
24620;BME280;12763;55.802;37.404;2023-05-16T08:09:57;100163.34;;;21.85;33.50
24620;BME280;12763;55.802;37.404;2023-05-16T08:12:24;100169.94;;;21.38;33.81
24620;BME280;12763;55.802;37.404;2023-05-16T08:14:51;100161.59;;;21.63;33.78
24620;BME280;12763;55.802;37.404;2023-05-16T08:17:17;100165.63;;;21.93;33.56
24620;BME280;12763;55.802;37.404;2023-05-16T08:19:43;100161.97;;;21.87;33.21
24620;BME280;12763;55.802;37.404;2023-05-16T08:22:09;100166.44;;;21.73;32.04
24620;BME280;12763;55.802;37.404;2023-05-16T08:24:35;100168.03;;;21.54;32.86
24620;BME280;12763;55.802;37.404;2023-05-16T08:27:01;100165.88;;;21.81;32.42
24620;BME280;12763;55.802;37.404;2023-05-16T08:29:29;100160.53;;;21.80;32.03
24620;BME280;12763;55.802;37.404;2023-05-16T08:31:56;100170.16;;;21.99;32.40
24620;BME280;12763;55.802;37.404;2023-05-16T08:34:22;100156.13;;;22.29;31.93
24620;BME280;12763;55.802;37.404;2023-05-16T08:36:48;100147.41;;;22.20;31.62
24620;BME280;12763;55.802;37.404;2023-05-16T08:39:13;100158.34;;;22.07;31.57
24620;BME280;12763;55.802;37.404;2023-05-16T08:41:40;100161.94;;;21.77;32.29
24620;BME280;12763;55.802;37.404;2023-05-16T08:44:05;100149.09;;;22.11;31.96
24620;BME280;12763;55.802;37.404;2023-05-16T08:46:32;100157.25;;;21.98;31.68
24620;BME280;12763;55.802;37.404;2023-05-16T08:49:00;100145.63;;;21.79;31.70
24620;BME280;12763;55.802;37.404;2023-05-16T08:51:31;100153.53;;;21.87;31.88
24620;BME280;12763;55.802;37.404;2023-05-16T08:54:07;100144.03;;;22.18;32.10
24620;BME280;12763;55.802;37.404;2023-05-16T08:56:37;100138.72;;;22.22;32.31
24620;BME280;12763;55.802;37.404;2023-05-16T08:59:03;100147.16;;;22.12;32.37
24620;BME280;12763;55.802;37.404;2023-05-16T09:01:29;100139.81;;;22.11;31.86
24620;BME280;12763;55.802;37.404;2023-05-16T09:03:57;100142.91;;;22.50;31.72
24620;BME280;12763;55.802;37.404;2023-05-16T09:06:25;100139.81;;;22.16;31.36
24620;BME280;12763;55.802;37.404;2023-05-16T09:08:52;100144.88;;;22.14;31.66
24620;BME280;12763;55.802;37.404;2023-05-16T09:11:18;100138.41;;;22.23;32.00
24620;BME280;12763;55.802;37.404;2023-05-16T09:13:46;100137.28;;;22.30;32.12
24620;BME280;12763;55.802;37.404;2023-05-16T09:16:15;100141.81;;;22.26;31.89
24620;BME280;12763;55.802;37.404;2023-05-16T09:18:43;100141.53;;;22.22;31.99
24620;BME280;12763;55.802;37.404;2023-05-16T09:21:13;100143.22;;;22.63;31.63
24620;BME280;12763;55.802;37.404;2023-05-16T09:23:41;100138.97;;;22.61;31.75
24620;BME280;12763;55.802;37.404;2023-05-16T09:26:09;100135.59;;;22.44;31.93
24620;BME280;12763;55.802;37.404;2023-05-16T09:28:38;100133.91;;;22.58;32.54
24620;BME280;12763;55.802;37.404;2023-05-16T09:31:18;100130.94;;;23.33;32.22
24620;BME280;12763;55.802;37.404;2023-05-16T09:33:45;100128.84;;;23.59;31.53
24620;BME280;12763;55.802;37.404;2023-05-16T09:36:11;100120.78;;;23.91;31.19
24620;BME280;12763;55.802;37.404;2023-05-16T09:38:38;100119.03;;;24.34;31.28
24620;BME280;12763;55.802;37.404;2023-05-16T09:41:04;100123.28;;;23.93;31.01
24620;BME280;12763;55.802;37.404;2023-05-16T09:43:30;100119.94;;;24.59;30.72
24620;BME280;12763;55.802;37.404;2023-05-16T09:45:58;100115.84;;;24.80;30.04
24620;BME280;12763;55.802;37.404;2023-05-16T09:48:24;100114.25;;;25.16;30.03
24620;BME280;12763;55.802;37.404;2023-05-16T09:50:53;100111.03;;;25.04;29.65
24620;BME280;12763;55.802;37.404;2023-05-16T09:53:29;100110.53;;;24.97;29.08
24620;BME280;12763;55.802;37.404;2023-05-16T09:56:03;100104.22;;;25.05;29.48
24620;BME280;12763;55.802;37.404;2023-05-16T09:58:31;100107.31;;;24.85;29.52
24620;BME280;12763;55.802;37.404;2023-05-16T10:00:58;100100.31;;;25.25;29.68
24620;BME280;12763;55.802;37.404;2023-05-16T10:03:24;100101.56;;;25.19;29.93
24620;BME280;12763;55.802;37.404;2023-05-16T10:05:51;100090.09;;;25.52;29.80
24620;BME280;12763;55.802;37.404;2023-05-16T10:08:22;100084.47;;;25.71;29.29
24620;BME280;12763;55.802;37.404;2023-05-16T10:10:55;100091.31;;;26.21;29.04
24620;BME280;12763;55.802;37.404;2023-05-16T10:13:25;100087.16;;;26.32;28.82
24620;BME280;12763;55.802;37.404;2023-05-16T10:15:55;100089.72;;;25.78;29.14
24620;BME280;12763;55.802;37.404;2023-05-16T10:18:22;100084.75;;;26.07;28.80
24620;BME280;12763;55.802;37.404;2023-05-16T10:20:52;100083.34;;;26.04;28.94
24620;BME280;12763;55.802;37.404;2023-05-16T10:23:20;100077.50;;;26.19;29.04
24620;BME280;12763;55.802;37.404;2023-05-16T10:25:47;100073.91;;;26.78;28.39
24620;BME280;12763;55.802;37.404;2023-05-16T10:28:15;100059.94;;;27.09;27.69
24620;BME280;12763;55.802;37.404;2023-05-16T10:30:45;100066.34;;;27.15;27.12
24620;BME280;12763;55.802;37.404;2023-05-16T10:33:15;100074.56;;;27.16;26.98
24620;BME280;12763;55.802;37.404;2023-05-16T10:35:43;100073.91;;;27.33;27.19
24620;BME280;12763;55.802;37.404;2023-05-16T10:38:10;100067.97;;;27.70;26.92
24620;BME280;12763;55.802;37.404;2023-05-16T10:40:38;100076.34;;;27.89;26.59
24620;BME280;12763;55.802;37.404;2023-05-16T10:43:06;100070.66;;;28.03;26.39
24620;BME280;12763;55.802;37.404;2023-05-16T10:45:34;100068.78;;;27.84;25.95
24620;BME280;12763;55.802;37.404;2023-05-16T10:48:07;100068.25;;;28.93;25.13
24620;BME280;12763;55.802;37.404;2023-05-16T10:50:43;100061.06;;;29.27;24.71
24620;BME280;12763;55.802;37.404;2023-05-16T10:55:50;100052.94;;;29.11;24.36
24620;BME280;12763;55.802;37.404;2023-05-16T11:01:28;100058.38;;;28.91;23.78
24620;BME280;12763;55.802;37.404;2023-05-16T11:06:31;100057.19;;;28.92;23.60
24620;BME280;12763;55.802;37.404;2023-05-16T11:11:52;100059.31;;;29.65;23.28
24620;BME280;12763;55.802;37.404;2023-05-16T11:14:36;100057.25;;;29.48;22.62
24620;BME280;12763;55.802;37.404;2023-05-16T11:19:50;100046.38;;;29.42;23.48
24620;BME280;12763;55.802;37.404;2023-05-16T11:22:25;100055.31;;;29.83;22.95
24620;BME280;12763;55.802;37.404;2023-05-16T11:29:56;100041.88;;;31.07;22.40
24620;BME280;12763;55.802;37.404;2023-05-16T11:32:23;100045.44;;;31.33;22.49
24620;BME280;12763;55.802;37.404;2023-05-16T11:34:50;100031.88;;;31.01;22.91
24620;BME280;12763;55.802;37.404;2023-05-16T11:37:17;100038.13;;;30.77;23.55
24620;BME280;12763;55.802;37.404;2023-05-16T11:39:44;100030.22;;;30.83;23.05
24620;BME280;12763;55.802;37.404;2023-05-16T11:42:11;100038.38;;;31.02;22.60
24620;BME280;12763;55.802;37.404;2023-05-16T11:44:39;100033.06;;;30.02;22.99
24620;BME280;12763;55.802;37.404;2023-05-16T11:47:06;100025.38;;;29.94;23.22
24620;BME280;12763;55.802;37.404;2023-05-16T11:49:34;100039.03;;;30.61;22.94
24620;BME280;12763;55.802;37.404;2023-05-16T11:52:01;100035.13;;;30.74;22.97
24620;BME280;12763;55.802;37.404;2023-05-16T11:54:27;100030.44;;;31.45;21.89
24620;BME280;12763;55.802;37.404;2023-05-16T11:56:53;100029.03;;;31.30;22.34
24620;BME280;12763;55.802;37.404;2023-05-16T11:59:20;100028.59;;;30.82;23.10
24620;BME280;12763;55.802;37.404;2023-05-16T12:01:46;100035.63;;;30.76;23.32
24620;BME280;12763;55.802;37.404;2023-05-16T12:04:16;100040.06;;;30.56;23.67
24620;BME280;12763;55.802;37.404;2023-05-16T12:06:42;100040.06;;;30.48;23.62
24620;BME280;12763;55.802;37.404;2023-05-16T12:09:14;100026.88;;;30.17;23.73
24620;BME280;12763;55.802;37.404;2023-05-16T12:11:42;100027.38;;;30.11;23.41
24620;BME280;12763;55.802;37.404;2023-05-16T12:14:11;100025.84;;;30.48;23.15
24620;BME280;12763;55.802;37.404;2023-05-16T12:16:38;100028.09;;;30.71;23.58
24620;BME280;12763;55.802;37.404;2023-05-16T12:19:07;100025.53;;;30.15;23.91
24620;BME280;12763;55.802;37.404;2023-05-16T12:21:34;100021.84;;;30.95;23.42
24620;BME280;12763;55.802;37.404;2023-05-16T12:24:00;100020.53;;;30.84;23.13
24620;BME280;12763;55.802;37.404;2023-05-16T12:26:31;100013.13;;;30.83;23.36
24620;BME280;12763;55.802;37.404;2023-05-16T12:28:59;100011.22;;;31.33;22.78
24620;BME280;12763;55.802;37.404;2023-05-16T12:31:29;100015.19;;;31.91;22.61
24620;BME280;12763;55.802;37.404;2023-05-16T12:33:56;100016.44;;;31.61;22.77
24620;BME280;12763;55.802;37.404;2023-05-16T12:36:24;100017.09;;;31.37;23.18
24620;BME280;12763;55.802;37.404;2023-05-16T12:38:52;100006.97;;;30.81;23.41
24620;BME280;12763;55.802;37.404;2023-05-16T12:41:20;100013.31;;;31.54;22.95
24620;BME280;12763;55.802;37.404;2023-05-16T12:43:46;100011.03;;;32.09;22.56
24620;BME280;12763;55.802;37.404;2023-05-16T12:46:13;100012.06;;;32.25;22.13
24620;BME280;12763;55.802;37.404;2023-05-16T12:48:40;100015.69;;;32.14;22.53
24620;BME280;12763;55.802;37.404;2023-05-16T12:51:16;100012.41;;;31.62;22.69
24620;BME280;12763;55.802;37.404;2023-05-16T12:53:47;100015.03;;;31.17;23.02
24620;BME280;12763;55.802;37.404;2023-05-16T12:56:14;100006.06;;;31.27;23.25
24620;BME280;12763;55.802;37.404;2023-05-16T12:58:41;100012.00;;;32.13;22.78
24620;BME280;12763;55.802;37.404;2023-05-16T13:01:07;100007.19;;;32.05;22.86
24620;BME280;12763;55.802;37.404;2023-05-16T13:03:34;100002.00;;;32.52;22.44
24620;BME280;12763;55.802;37.404;2023-05-16T13:06:01;100001.13;;;31.86;22.82
24620;BME280;12763;55.802;37.404;2023-05-16T13:08:28;99987.47;;;32.12;22.77